createdAt,value
2018-11-28T00:00:36.787Z,101059.84
2018-11-28T00:03:19.246Z,101069.05
2018-11-28T00:06:03.426Z,101070.95
2018-11-28T00:08:45.322Z,101073.88
2018-11-28T00:11:28.776Z,101072.06
2018-11-28T00:14:12.211Z,101073.56
2018-11-28T00:16:53.875Z,101075.45
2018-11-28T00:19:36.306Z,101066.73
2018-11-28T00:22:18.220Z,101066.98
2018-11-28T00:25:00.732Z,101058.25
2018-11-28T00:27:43.135Z,101056.42
2018-11-28T00:30:26.306Z,101059.12
2018-11-28T00:33:08.052Z,101052.78
2018-11-28T00:35:49.734Z,101052.62
2018-11-28T00:38:31.623Z,101053.80
2018-11-28T00:41:13.849Z,101053.41
2018-11-28T00:43:55.535Z,101055.96
2018-11-28T00:46:40.424Z,101053.26
2018-11-28T00:49:22.504Z,101048.58
2018-11-28T00:52:04.934Z,101053.26
2018-11-28T00:54:47.673Z,101050.57
2018-11-28T00:57:29.778Z,101052.78
2018-11-28T01:00:14.222Z,101045.96
2018-11-28T01:02:56.584Z,101039.14
2018-11-28T01:05:38.923Z,101041.28
2018-11-28T01:08:22.640Z,101041.28
2018-11-28T01:11:04.901Z,101049.38
2018-11-28T01:13:47.323Z,101044.70
2018-11-28T01:16:42.929Z,101034.87
2018-11-28T01:19:24.902Z,101035.27
2018-11-28T01:22:07.282Z,101036.05
2018-11-28T01:24:49.678Z,101039.47
2018-11-28T01:27:32.087Z,101037.56
2018-11-28T01:30:17.392Z,101037.86
2018-11-28T01:32:59.794Z,101029.08
2018-11-28T01:35:42.211Z,101039.44
2018-11-28T01:38:24.834Z,101038.52
2018-11-28T01:41:06.960Z,101038.84
2018-11-28T01:43:49.307Z,101035.63
2018-11-28T01:46:32.099Z,101031.38
2018-11-28T01:49:14.052Z,101028.89
2018-11-28T01:51:56.580Z,101026.20
2018-11-28T01:54:46.439Z,101025.17
2018-11-28T01:57:28.363Z,101024.84
2018-11-28T02:00:12.388Z,101023.77
2018-11-28T02:02:56.432Z,101026.12
2018-11-28T02:05:38.816Z,101020.25
2018-11-28T02:08:21.409Z,101017.71
2018-11-28T02:11:04.376Z,101019.45
2018-11-28T02:13:45.958Z,101021.36
2018-11-28T02:16:27.964Z,101025.09
2018-11-28T02:19:10.358Z,101023.19
2018-11-28T02:21:52.582Z,101026.67
2018-11-28T02:24:43.727Z,101026.83
2018-11-28T02:27:25.379Z,101018.66
2018-11-28T02:30:10.856Z,101022.79
2018-11-28T02:32:53.361Z,101018.50
2018-11-28T02:35:35.779Z,101014.06
2018-11-28T02:38:18.399Z,101014.86
2018-11-28T02:41:00.368Z,101010.33
2018-11-28T02:43:42.760Z,101013.34
2018-11-28T02:46:30.730Z,101016.92
2018-11-28T02:49:12.834Z,101016.76
2018-11-28T02:51:55.203Z,101014.62
2018-11-28T02:54:37.477Z,101012.20
2018-11-28T02:57:19.994Z,101005.06
2018-11-28T03:00:02.417Z,101006.01
2018-11-28T03:02:45.422Z,101000.53
2018-11-28T03:05:27.406Z,101001.09
2018-11-28T03:08:10.373Z,101002.91
2018-11-28T03:10:52.323Z,101006.72
2018-11-28T03:13:34.725Z,100999.81
2018-11-28T03:16:18.426Z,100998.46
2018-11-28T03:19:00.805Z,101001.16
2018-11-28T03:21:42.359Z,101007.34
2018-11-28T03:24:25.240Z,101007.75
2018-11-28T03:27:07.138Z,101012.98
2018-11-28T03:29:49.562Z,101019.72
2018-11-28T03:32:34.300Z,101024.64
2018-11-28T03:35:16.684Z,101014.33
2018-11-28T03:37:58.986Z,101011.16
2018-11-28T03:40:43.651Z,101005.76
2018-11-28T03:43:25.474Z,101004.88
2018-11-28T03:46:07.390Z,101007.63
2018-11-28T03:48:51.037Z,101004.81
2018-11-28T03:51:33.119Z,101000.28
2018-11-28T03:54:15.552Z,100990.48
2018-11-28T03:56:58.268Z,100994.20
2018-11-28T03:59:40.510Z,100980.23
2018-11-28T04:02:22.992Z,100982.53
2018-11-28T04:05:06.246Z,100991.17
2018-11-28T04:07:47.899Z,100987.84
2018-11-28T04:10:30.356Z,100986.09
2018-11-28T04:13:12.812Z,100982.05
2018-11-28T04:15:55.298Z,100981.72
2018-11-28T04:18:37.803Z,100983.58
2018-11-28T04:21:21.545Z,100978.97
2018-11-28T04:24:03.806Z,100983.01
2018-11-28T04:26:46.052Z,100984.68
2018-11-28T04:29:29.838Z,100991.73
2018-11-28T04:32:11.775Z,100996.02
2018-11-28T04:34:54.723Z,100997.30
2018-11-28T04:37:37.523Z,100996.83
2018-11-28T04:40:20.840Z,100990.63
2018-11-28T04:43:03.700Z,100987.03
2018-11-28T04:45:46.206Z,100989.50
2018-11-28T04:48:28.036Z,100993.78
2018-11-28T04:51:10.424Z,101003.30
2018-11-28T04:53:53.187Z,100997.96
2018-11-28T04:56:35.828Z,100998.04
2018-11-28T04:59:17.824Z,100992.80
2018-11-28T05:02:01.217Z,101002.72
2018-11-28T05:04:43.622Z,100999.45
2018-11-28T05:07:29.414Z,100993.94
2018-11-28T05:10:18.164Z,100989.55
2018-11-28T05:13:00.587Z,100986.61
2018-11-28T05:15:42.934Z,100990.23
2018-11-28T05:18:24.721Z,100988.16
2018-11-28T05:21:07.149Z,100985.55
2018-11-28T05:23:49.672Z,100989.44
2018-11-28T05:26:34.102Z,100987.77
2018-11-28T05:29:16.286Z,101000.48
2018-11-28T05:31:58.840Z,100987.37
2018-11-28T05:34:40.987Z,100983.16
2018-11-28T05:37:23.486Z,100982.42
2018-11-28T05:40:09.085Z,100980.35
2018-11-28T05:42:51.264Z,100986.97
2018-11-28T05:45:33.603Z,100976.72
2018-11-28T05:48:17.569Z,100978.09
2018-11-28T05:51:00.290Z,100973.14
2018-11-28T05:53:42.683Z,100965.84
2018-11-28T05:56:24.778Z,100972.59
2018-11-28T05:59:07.368Z,100976.22
2018-11-28T06:01:50.662Z,100977.95
2018-11-28T06:04:33.243Z,100977.30
2018-11-28T06:07:16.382Z,100972.05
2018-11-28T06:09:59.106Z,100972.05
2018-11-28T06:12:48.887Z,100971.39
2018-11-28T06:15:31.589Z,100973.76
2018-11-28T06:18:13.384Z,100981.23
2018-11-28T06:20:55.713Z,100969.24
2018-11-28T06:23:38.410Z,100965.56
2018-11-28T06:26:20.822Z,100978.42
2018-11-28T06:29:02.953Z,100972.20
2018-11-28T06:31:45.371Z,100962.22
2018-11-28T06:38:11.690Z,100963.83
2018-11-28T06:40:52.825Z,100970.59
2018-11-28T06:43:34.142Z,100974.06
2018-11-28T06:46:16.046Z,100973.27
2018-11-28T06:49:00.517Z,100970.26
2018-11-28T06:51:42.486Z,100976.22
2018-11-28T06:54:25.405Z,100982.98
2018-11-28T06:57:07.267Z,100982.35
2018-11-28T06:59:48.594Z,100980.34
2018-11-28T07:02:30.266Z,100985.38
2018-11-28T07:05:12.652Z,100986.31
2018-11-28T07:07:53.724Z,100985.87
2018-11-28T07:10:36.481Z,100987.95
2018-11-28T07:13:17.844Z,100989.09
2018-11-28T07:15:59.014Z,100995.26
2018-11-28T07:18:52.802Z,100995.68
2018-11-28T07:21:34.937Z,101004.59
2018-11-28T07:24:16.322Z,101011.77
2018-11-28T07:26:58.091Z,101018.83
2018-11-28T07:29:39.262Z,101019.22
2018-11-28T07:32:20.615Z,101025.59
2018-11-28T07:35:04.698Z,101033.77
2018-11-28T07:37:46.509Z,101024.38
2018-11-28T07:40:30.228Z,101016.94
2018-11-28T07:43:12.541Z,101015.73
2018-11-28T07:45:53.713Z,101010.60
2018-11-28T07:48:35.600Z,101008.05
2018-11-28T07:51:17.428Z,101011.06
2018-11-28T07:53:59.002Z,101009.86
2018-11-28T07:56:40.687Z,101012.87
2018-11-28T07:59:21.853Z,101014.83
2018-11-28T08:02:03.256Z,101013.73
2018-11-28T08:04:46.054Z,101021.91
2018-11-28T08:07:28.077Z,101020.17
2018-11-28T08:10:19.293Z,101018.27
2018-11-28T08:13:00.631Z,101011.35
2018-11-28T08:15:42.648Z,101021.27
2018-11-28T08:18:25.726Z,101017.22
2018-11-28T08:21:07.807Z,101021.23
2018-11-28T08:23:49.404Z,101020.36
2018-11-28T08:26:36.331Z,101021.98
2018-11-28T08:29:18.932Z,101032.25
2018-11-28T08:32:01.022Z,101029.87
2018-11-28T08:34:45.168Z,101026.51
2018-11-28T08:37:26.336Z,101015.98
2018-11-28T08:40:09.815Z,101019.06
2018-11-28T08:42:51.305Z,101016.22
2018-11-28T08:45:32.545Z,101022.22
2018-11-28T08:48:17.806Z,101021.98
2018-11-28T08:50:59.634Z,101018.56
2018-11-28T08:53:41.580Z,101017.69
2018-11-28T08:56:25.414Z,101004.98
2018-11-28T08:59:07.433Z,100996.17
2018-11-28T09:01:48.786Z,100993.38
2018-11-28T09:04:34.457Z,100987.16
2018-11-28T09:07:15.714Z,100987.52
2018-11-28T09:09:57.199Z,100990.18
2018-11-28T09:12:38.935Z,100998.11
2018-11-28T09:15:23.913Z,101002.65
2018-11-28T09:18:05.763Z,100992.75
2018-11-28T09:20:47.443Z,100994.08
2018-11-28T09:23:29.394Z,100992.50
2018-11-28T09:26:15.338Z,100995.88
2018-11-28T09:28:57.341Z,100990.94
2018-11-28T09:31:38.986Z,100993.59
2018-11-28T09:34:25.213Z,100992.88
2018-11-28T09:37:07.597Z,100991.52
2018-11-28T09:39:49.410Z,100998.42
2018-11-28T09:42:34.418Z,100994.25
2018-11-28T09:45:17.175Z,100999.41
2018-11-28T09:47:58.876Z,100997.72
2018-11-28T09:50:42.555Z,100995.78
2018-11-28T09:53:23.707Z,100998.39
2018-11-28T09:56:05.162Z,101005.74
2018-11-28T09:58:46.774Z,101000.13
2018-11-28T10:01:28.083Z,100993.94
2018-11-28T10:04:09.284Z,100988.77
2018-11-28T10:06:50.649Z,100988.55
2018-11-28T10:09:32.353Z,100985.62
2018-11-28T10:12:13.828Z,100983.78
2018-11-28T10:14:55.712Z,100976.06
2018-11-28T10:17:37.227Z,100977.74
2018-11-28T10:20:19.246Z,100969.08
2018-11-28T10:23:01.029Z,100975.38
2018-11-28T10:25:42.444Z,100971.91
2018-11-28T10:28:23.810Z,100975.50
2018-11-28T10:31:05.436Z,100972.16
2018-11-28T10:33:46.519Z,100970.33
2018-11-28T10:36:28.057Z,100968.25
2018-11-28T10:39:09.657Z,100968.25
2018-11-28T10:41:51.901Z,100963.09
2018-11-28T10:44:35.223Z,100962.67
2018-11-28T10:47:16.581Z,100954.52
2018-11-28T10:49:57.920Z,100957.24
2018-11-28T10:52:39.954Z,100959.06
2018-11-28T10:55:22.667Z,100956.48
2018-11-28T10:58:04.755Z,100956.06
2018-11-28T11:00:52.474Z,100956.45
2018-11-28T11:03:39.307Z,100955.77
2018-11-28T11:06:27.014Z,100957.06
2018-11-28T11:09:14.578Z,100950.57
2018-11-28T11:12:02.302Z,100950.73
2018-11-28T11:14:46.764Z,100953.58
2018-11-28T11:17:29.227Z,100944.31
2018-11-28T11:20:11.107Z,100947.32
2018-11-28T11:22:53.238Z,100946.89
2018-11-28T11:25:34.405Z,100945.15
2018-11-28T11:28:16.408Z,100940.12
2018-11-28T11:30:58.490Z,100938.28
2018-11-28T11:33:39.675Z,100933.98
2018-11-28T11:36:21.834Z,100932.59
2018-11-28T11:39:05.121Z,100928.32
2018-11-28T11:41:50.038Z,100927.73
2018-11-28T11:44:36.574Z,100927.73
2018-11-28T11:47:18.202Z,100923.05
2018-11-28T11:50:02.025Z,100912.58
2018-11-28T11:52:43.911Z,100913.65
2018-11-28T11:55:25.276Z,100916.67
2018-11-28T11:58:07.143Z,100911.46
2018-11-28T12:00:49.573Z,100913.16
2018-11-28T12:03:31.591Z,100905.56
2018-11-28T12:06:14.954Z,100901.92
2018-11-28T12:08:56.261Z,100891.55
2018-11-28T12:11:37.683Z,100894.00
2018-11-28T12:14:19.195Z,100892.20
2018-11-28T12:17:00.616Z,100884.19
2018-11-28T12:19:42.398Z,100886.30
2018-11-28T12:22:25.232Z,100888.04
2018-11-28T12:25:07.373Z,100892.02
2018-11-28T12:27:49.654Z,100897.64
2018-11-28T12:30:31.263Z,100897.48
2018-11-28T12:33:13.779Z,100891.28
2018-11-28T12:35:56.714Z,100890.45
2018-11-28T12:38:38.122Z,100889.33
2018-11-28T12:41:21.650Z,100889.30
2018-11-28T12:44:03.030Z,100886.34
2018-11-28T12:46:44.394Z,100885.18
2018-11-28T12:49:26.306Z,100887.23
2018-11-28T12:52:08.421Z,100881.23
2018-11-28T12:54:52.562Z,100886.76
2018-11-28T12:57:34.351Z,100877.73
2018-11-28T13:00:19.301Z,100870.51
2018-11-28T13:03:00.974Z,100863.70
2018-11-28T13:05:42.421Z,100869.29
2018-11-28T13:08:24.202Z,100870.06
2018-11-28T13:11:07.102Z,100860.23
2018-11-28T13:13:50.482Z,100869.25
2018-11-28T13:16:31.991Z,100872.72
2018-11-28T13:19:13.286Z,100868.13
2018-11-28T13:21:56.079Z,100871.02
2018-11-28T13:24:37.182Z,100857.70
2018-11-28T13:27:18.833Z,100865.83
2018-11-28T13:30:01.500Z,100862.30
2018-11-28T13:32:42.910Z,100861.37
2018-11-28T13:35:26.000Z,100864.00
2018-11-28T13:38:09.599Z,100863.16
2018-11-28T13:40:50.958Z,100854.68
2018-11-28T13:43:32.923Z,100853.40
2018-11-28T13:46:14.894Z,100846.11
2018-11-28T13:48:56.289Z,100840.94
2018-11-28T13:51:38.214Z,100836.73
2018-11-28T13:54:21.878Z,100840.94
2018-11-28T13:57:04.505Z,100837.03
2018-11-28T13:59:44.509Z,100833.64
2018-11-28T14:02:25.597Z,100825.09
2018-11-28T14:05:11.565Z,100822.08
2018-11-28T14:07:53.572Z,100824.73
2018-11-28T14:10:34.939Z,100818.56
2018-11-28T14:13:17.216Z,100820.27
2018-11-28T14:15:58.725Z,100813.25
2018-11-28T14:18:40.238Z,100808.00
2018-11-28T14:21:22.129Z,100801.63
2018-11-28T14:24:04.127Z,100810.66
2018-11-28T14:26:45.441Z,100816.77
2018-11-28T14:29:27.437Z,100814.18
2018-11-28T14:32:09.327Z,100814.27
2018-11-28T14:34:50.773Z,100812.58
2018-11-28T14:37:32.550Z,100816.52
2018-11-28T14:40:15.430Z,100805.81
2018-11-28T14:42:58.021Z,100805.88
2018-11-28T14:45:40.287Z,100799.78
2018-11-28T14:48:21.833Z,100801.86
2018-11-28T14:51:03.477Z,100797.14
2018-11-28T14:53:48.009Z,100789.42
2018-11-28T14:56:27.513Z,100794.09
2018-11-28T14:59:09.785Z,100799.96
2018-11-28T15:01:51.916Z,100794.30
2018-11-28T15:04:33.786Z,100777.23
2018-11-28T15:07:15.109Z,100776.39
2018-11-28T15:09:58.339Z,100778.65
2018-11-28T15:12:40.684Z,100774.69
2018-11-28T15:15:22.362Z,100781.95
2018-11-28T15:18:04.403Z,100775.19
2018-11-28T15:20:46.267Z,100771.36
2018-11-28T15:23:27.698Z,100770.80
2018-11-28T15:26:09.548Z,100758.77
2018-11-28T15:28:51.453Z,100765.13
2018-11-28T15:31:33.101Z,100771.98
2018-11-28T15:34:23.285Z,100770.27
2018-11-28T15:37:04.681Z,100767.26
2018-11-28T15:39:46.154Z,100771.53
2018-11-28T15:42:28.118Z,100767.70
2018-11-28T15:45:10.011Z,100767.67
2018-11-28T15:47:51.170Z,100762.09
2018-11-28T15:50:32.983Z,100765.95
2018-11-28T15:53:14.881Z,100762.91
2018-11-28T15:55:56.358Z,100767.97
2018-11-28T15:58:38.663Z,100769.80
2018-11-28T16:01:20.144Z,100759.55
2018-11-28T16:04:01.499Z,100759.00
2018-11-28T16:06:44.185Z,100758.27
2018-11-28T16:09:31.711Z,100752.66
2018-11-28T16:12:14.462Z,100745.79
2018-11-28T16:14:56.367Z,100738.95
2018-11-28T16:17:40.617Z,100737.69
2018-11-28T16:20:22.019Z,100737.63
2018-11-28T16:23:04.900Z,100732.08
2018-11-28T16:25:46.538Z,100735.06
2018-11-28T16:28:27.871Z,100741.87
2018-11-28T16:31:09.721Z,100741.77
2018-11-28T16:33:53.599Z,100744.70
2018-11-28T16:36:35.160Z,100748.89
2018-11-28T16:39:16.791Z,100748.53
2018-11-28T16:41:58.752Z,100749.28
2018-11-28T16:44:40.942Z,100749.28
2018-11-28T16:47:26.098Z,100748.00
2018-11-28T16:50:08.854Z,100750.23
2018-11-28T16:52:50.430Z,100753.64
2018-11-28T16:55:32.282Z,100750.38
2018-11-28T16:58:14.342Z,100749.14
2018-11-28T17:00:57.071Z,100747.41
2018-11-28T17:03:39.151Z,100754.59
2018-11-28T17:06:20.620Z,100756.80
2018-11-28T17:09:02.010Z,100753.86
2018-11-28T17:11:43.599Z,100759.84
2018-11-28T17:14:24.801Z,100757.74
2018-11-28T17:17:07.241Z,100757.23
2018-11-28T17:19:48.514Z,100755.95
2018-11-28T17:22:32.604Z,100752.88
2018-11-28T17:25:21.122Z,100761.34
2018-11-28T17:28:02.774Z,100743.36
2018-11-28T17:30:44.429Z,100759.30
2018-11-28T17:33:25.641Z,100748.53
2018-11-28T17:36:07.179Z,100748.08
2018-11-28T17:38:48.609Z,100758.36
2018-11-28T17:41:29.733Z,100766.06
2018-11-28T17:44:11.247Z,100759.17
2018-11-28T17:46:53.027Z,100757.49
2018-11-28T17:49:35.090Z,100753.11
2018-11-28T17:52:17.404Z,100748.03
2018-11-28T17:55:00.722Z,100751.41
2018-11-28T17:57:42.053Z,100739.51
2018-11-28T18:00:23.882Z,100739.12
2018-11-28T18:03:05.844Z,100741.80
2018-11-28T18:05:47.406Z,100745.41
2018-11-28T18:08:28.754Z,100755.03
2018-11-28T18:11:13.630Z,100747.17
2018-11-28T18:13:54.701Z,100747.02
2018-11-28T18:16:36.296Z,100748.16
2018-11-28T18:19:21.127Z,100746.23
2018-11-28T18:22:03.174Z,100741.34
2018-11-28T18:24:44.544Z,100731.84
2018-11-28T18:27:26.323Z,100735.75
2018-11-28T18:30:10.338Z,100735.66
2018-11-28T18:32:52.681Z,100738.80
2018-11-28T18:35:35.618Z,100738.00
2018-11-28T18:38:17.841Z,100748.26
2018-11-28T18:40:59.025Z,100751.27
2018-11-28T18:43:40.692Z,100747.42
2018-11-28T18:46:21.802Z,100744.83
2018-11-28T18:49:03.279Z,100750.38
2018-11-28T18:51:44.851Z,100749.70
2018-11-28T18:54:25.995Z,100754.48
2018-11-28T18:57:07.461Z,100752.33
2018-11-28T18:59:50.631Z,100759.23
2018-11-28T19:02:32.107Z,100759.94
2018-11-28T19:05:13.704Z,100755.22
2018-11-28T19:07:57.323Z,100749.61
2018-11-28T19:10:39.418Z,100749.38
2018-11-28T19:13:21.396Z,100740.82
2018-11-28T19:16:03.603Z,100741.84
2018-11-28T19:18:44.671Z,100737.16
2018-11-28T19:21:26.136Z,100736.74
2018-11-28T19:24:07.831Z,100737.19
2018-11-28T19:26:49.002Z,100747.20
2018-11-28T19:29:30.288Z,100743.16
2018-11-28T19:32:12.348Z,100746.56
2018-11-28T19:34:54.355Z,100743.19
2018-11-28T19:37:35.666Z,100742.71
2018-11-28T19:40:28.905Z,100743.19
2018-11-28T19:43:10.607Z,100738.27
2018-11-28T19:45:53.666Z,100732.81
2018-11-28T19:48:35.443Z,100719.12
2018-11-28T19:51:16.885Z,100714.79
2018-11-28T19:53:58.806Z,100703.66
2018-11-28T19:56:40.726Z,100703.30
2018-11-28T19:59:22.160Z,100699.36
2018-11-28T20:02:05.445Z,100696.70
2018-11-28T20:04:47.785Z,100706.64
2018-11-28T20:07:29.380Z,100708.84
2018-11-28T20:10:14.422Z,100709.59
2018-11-28T20:12:56.286Z,100713.45
2018-11-28T20:15:39.850Z,100716.97
2018-11-28T20:18:29.239Z,100715.20
2018-11-28T20:21:18.763Z,100712.61
2018-11-28T20:24:01.145Z,100715.98
2018-11-28T20:26:43.686Z,100709.44
2018-11-28T20:29:26.085Z,100717.47
2018-11-28T20:32:08.138Z,100714.39
2018-11-28T20:34:49.675Z,100710.48
2018-11-28T20:37:32.589Z,100707.47
2018-11-28T20:40:15.638Z,100696.75
2018-11-28T20:42:57.403Z,100700.61
2018-11-28T20:45:39.532Z,100701.47
2018-11-28T20:48:21.128Z,100697.59
2018-11-28T20:51:03.646Z,100697.98
2018-11-28T20:53:45.956Z,100692.45
2018-11-28T20:56:28.647Z,100690.73
2018-11-28T20:59:10.796Z,100692.05
2018-11-28T21:01:52.841Z,100698.91
2018-11-28T21:04:34.694Z,100697.63
2018-11-28T21:07:16.732Z,100693.42
2018-11-28T21:10:03.227Z,100696.08
2018-11-28T21:12:45.171Z,100695.69
2018-11-28T21:15:27.307Z,100695.75
2018-11-28T21:18:10.530Z,100692.80
2018-11-28T21:20:51.918Z,100688.14
2018-11-28T21:23:33.267Z,100686.05
2018-11-28T21:26:15.247Z,100687.87
2018-11-28T21:28:57.116Z,100683.57
2018-11-28T21:31:39.518Z,100684.88
2018-11-28T21:34:23.286Z,100680.20
2018-11-28T21:37:05.377Z,100679.77
2018-11-28T21:39:55.819Z,100675.34
2018-11-28T21:42:37.235Z,100679.23
2018-11-28T21:45:20.278Z,100669.73
2018-11-28T21:48:03.061Z,100660.83
2018-11-28T21:50:44.210Z,100662.22
2018-11-28T21:53:25.978Z,100659.39
2018-11-28T21:56:07.539Z,100652.70
2018-11-28T21:58:49.573Z,100649.69
2018-11-28T22:01:30.998Z,100651.08
2018-11-28T22:04:12.846Z,100646.83
2018-11-28T22:06:54.882Z,100653.27
2018-11-28T22:09:36.285Z,100651.22
2018-11-28T22:12:18.346Z,100656.42
2018-11-28T22:15:01.921Z,100661.17
2018-11-28T22:17:48.256Z,100666.05
2018-11-28T22:20:31.758Z,100654.95
2018-11-28T22:23:21.128Z,100648.50
2018-11-28T22:26:09.449Z,100649.48
2018-11-28T22:29:00.466Z,100646.18
2018-11-28T22:31:43.694Z,100648.34
2018-11-28T22:34:27.906Z,100645.37
2018-11-28T22:37:10.986Z,100647.91
2018-11-28T22:39:53.863Z,100643.17
2018-11-28T22:42:41.824Z,100632.05
2018-11-28T22:45:28.292Z,100629.08
2018-11-28T22:48:17.425Z,100622.63
2018-11-28T22:51:06.321Z,100616.63
2018-11-28T22:53:48.078Z,100615.28
2018-11-28T22:56:29.458Z,100625.10
2018-11-28T22:59:10.793Z,100624.68
2018-11-28T23:02:57.161Z,100618.33
2018-11-28T23:05:41.746Z,100623.04
2018-11-28T23:08:23.106Z,100613.20
2018-11-28T23:11:05.330Z,100611.89
2018-11-28T23:13:46.930Z,100603.31
2018-11-28T23:16:28.381Z,100602.06
2018-11-28T23:19:10.222Z,100596.05
2018-11-28T23:21:52.110Z,100594.37
2018-11-28T23:24:33.546Z,100590.51
2018-11-28T23:27:15.608Z,100593.50
2018-11-28T23:29:57.402Z,100596.94
2018-11-28T23:32:38.758Z,100593.97
2018-11-28T23:35:20.550Z,100572.49
2018-11-28T23:38:01.631Z,100571.70
2018-11-28T23:40:43.205Z,100571.27
2018-11-28T23:43:25.158Z,100564.41
2018-11-28T23:46:07.158Z,100567.42
2018-11-28T23:48:48.341Z,100560.23
2018-11-28T23:51:30.118Z,100560.27
2018-11-28T23:54:11.234Z,100560.40
2018-11-28T23:56:52.586Z,100556.12
2018-11-28T23:59:36.935Z,100560.44
